Time;durP1;ratioP1;P1;durP2;ratioP2;P2;SDS_P1;SDS_P2;PMS_P1;PMS_P2;Temp;Humidity;BMP_temperature;BMP_pressure;BME280_temperature;BME280_humidity;BME280_pressure;Samples;Min_cycle;Max_cycle;Signal;HPM_P1;HPM_P2
2023/02/12 00:00:35;;;;;;;57.53;34.75;;;;;;;;;;5014202;28;20515;-70
2023/02/12 00:03:01;;;;;;;51.20;31.75;;;;;;;;;;5013792;28;20040;-70
2023/02/12 00:05:27;;;;;;;62.40;34.53;;;;;;;;;;5012593;28;20208;-70
2023/02/12 00:07:53;;;;;;;57.70;33.15;;;;;;;;;;5012904;28;20053;-70
2023/02/12 00:10:19;;;;;;;53.28;34.20;;;;;;;;;;5013539;28;20033;-70
2023/02/12 00:12:45;;;;;;;56.55;34.40;;;;;;;;;;5013875;28;20030;-70
2023/02/12 00:15:11;;;;;;;52.97;32.78;;;;;;;;;;5013667;28;20488;-70
2023/02/12 00:17:37;;;;;;;60.47;36.22;;;;;;;;;;5012881;28;20030;-70
2023/02/12 00:20:03;;;;;;;63.05;36.13;;;;;;;;;;5013386;28;20504;-70
2023/02/12 00:22:29;;;;;;;51.75;32.22;;;;;;;;;;5013328;28;20229;-71
2023/02/12 00:24:56;;;;;;;59.92;37.13;;;;;;;;;;5013722;28;20032;-71
2023/02/12 00:27:22;;;;;;;58.70;35.60;;;;;;;;;;5012502;28;20048;-71
2023/02/12 00:29:48;;;;;;;61.60;35.17;;;;;;;;;;5013375;28;20109;-71
2023/02/12 00:32:18;;;;;;;59.85;36.97;;;;;;;;;;5012090;28;20121;-71
2023/02/12 00:34:44;;;;;;;64.80;35.45;;;;;;;;;;5013361;28;20025;-69
2023/02/12 00:37:10;;;;;;;59.45;37.22;;;;;;;;;;5012203;28;20436;-70
2023/02/12 00:39:36;;;;;;;56.63;34.60;;;;;;;;;;5011805;28;20026;-70
2023/02/12 00:42:03;;;;;;;68.32;38.33;;;;;;;;;;5012781;28;20492;-72
2023/02/12 00:44:29;;;;;;;56.97;35.58;;;;;;;;;;5013115;28;20396;-72
2023/02/12 00:46:56;;;;;;;62.88;35.10;;;;;;;;;;5012697;28;20034;-69
2023/02/12 00:49:22;;;;;;;62.58;37.17;;;;;;;;;;5013328;28;20034;-71
2023/02/12 00:51:48;;;;;;;63.53;36.90;;;;;;;;;;5012702;28;20029;-73
2023/02/12 00:54:14;;;;;;;65.80;38.00;;;;;;;;;;5011351;28;20026;-70
2023/02/12 00:56:40;;;;;;;65.43;37.15;;;;;;;;;;5012851;28;20476;-70
2023/02/12 00:59:06;;;;;;;66.85;38.20;;;;;;;;;;5011736;28;20140;-71
2023/02/12 01:01:32;;;;;;;65.45;37.35;;;;;;;;;;5012509;28;20030;-70
2023/02/12 01:03:58;;;;;;;58.78;35.47;;;;;;;;;;5012410;28;20022;-71
2023/02/12 01:06:24;;;;;;;63.70;37.65;;;;;;;;;;5012378;28;20033;-71
2023/02/12 01:08:51;;;;;;;67.15;37.10;;;;;;;;;;5011739;28;20555;-71
2023/02/12 01:11:17;;;;;;;61.38;33.97;;;;;;;;;;5011258;28;20560;-70
2023/02/12 01:13:43;;;;;;;63.63;35.85;;;;;;;;;;5011040;28;20194;-69
2023/02/12 01:16:11;;;;;;;57.75;33.67;;;;;;;;;;5011005;28;20026;-71
2023/02/12 01:18:37;;;;;;;61.30;36.25;;;;;;;;;;5011417;28;20029;-71
2023/02/12 01:21:10;;;;;;;61.80;36.10;;;;;;;;;;5012370;28;20083;-72
2023/02/12 01:23:36;;;;;;;58.00;32.72;;;;;;;;;;5012303;28;20431;-70
2023/02/12 01:26:03;;;;;;;55.65;35.10;;;;;;;;;;5012338;28;20029;-71
2023/02/12 01:28:29;;;;;;;52.83;32.03;;;;;;;;;;5011508;28;20028;-71
2023/02/12 01:30:55;;;;;;;54.35;33.20;;;;;;;;;;5012178;28;20480;-71
2023/02/12 01:33:21;;;;;;;58.83;34.83;;;;;;;;;;5011856;28;20084;-71
2023/02/12 01:35:47;;;;;;;59.38;35.80;;;;;;;;;;5012099;28;20072;-71
2023/02/12 01:38:13;;;;;;;67.85;37.88;;;;;;;;;;5011263;28;20025;-71
2023/02/12 01:40:39;;;;;;;59.33;33.50;;;;;;;;;;5012221;28;20365;-69
2023/02/12 01:43:06;;;;;;;60.53;34.78;;;;;;;;;;5012006;28;20033;-71
2023/02/12 01:45:46;;;;;;;61.65;36.53;;;;;;;;;;5011905;28;20026;-70
2023/02/12 01:48:13;;;;;;;61.53;34.53;;;;;;;;;;5011043;28;20042;-72
2023/02/12 01:50:41;;;;;;;54.80;34.08;;;;;;;;;;5011732;28;20524;-71
2023/02/12 01:53:07;;;;;;;62.97;37.55;;;;;;;;;;5011498;28;20022;-71
2023/02/12 01:55:33;;;;;;;59.75;35.35;;;;;;;;;;5010410;28;20021;-70
2023/02/12 01:57:59;;;;;;;59.05;34.05;;;;;;;;;;5010970;28;20053;-70
2023/02/12 02:00:25;;;;;;;58.78;33.92;;;;;;;;;;5011629;28;20451;-70
2023/02/12 02:02:56;;;;;;;61.38;34.35;;;;;;;;;;5011587;28;20030;-71
2023/02/12 02:05:24;;;;;;;62.38;35.35;;;;;;;;;;5011730;28;20392;-69
2023/02/12 02:07:52;;;;;;;61.55;36.05;;;;;;;;;;5010899;28;20427;-72
2023/02/12 02:10:18;;;;;;;65.95;36.95;;;;;;;;;;5011702;28;20029;-70
2023/02/12 02:15:30;;;;;;;63.03;34.30;;;;;;;;;;5011567;28;20492;-71
2023/02/12 02:17:56;;;;;;;58.80;35.17;;;;;;;;;;5010511;28;20026;-69
2023/02/12 02:20:25;;;;;;;56.50;32.40;;;;;;;;;;5011641;28;20030;-71
2023/02/12 02:23:08;;;;;;;57.70;35.25;;;;;;;;;;5011369;28;20048;-70
2023/02/12 02:25:46;;;;;;;53.13;31.42;;;;;;;;;;5011331;28;20021;-70
2023/02/12 02:28:32;;;;;;;64.25;35.83;;;;;;;;;;5009407;28;20022;-70
2023/02/12 02:31:10;;;;;;;61.95;34.78;;;;;;;;;;5011517;28;20149;-69
2023/02/12 02:33:56;;;;;;;64.40;36.95;;;;;;;;;;5011349;28;20108;-69
2023/02/12 02:36:31;;;;;;;63.05;36.97;;;;;;;;;;5010990;28;20109;-70
2023/02/12 02:39:00;;;;;;;64.10;36.58;;;;;;;;;;5010643;28;20029;-70
2023/02/12 02:41:44;;;;;;;63.58;34.40;;;;;;;;;;5011200;28;20439;-70
2023/02/12 02:44:13;;;;;;;57.47;33.30;;;;;;;;;;5011096;28;20407;-70
2023/02/12 02:46:47;;;;;;;61.40;36.67;;;;;;;;;;5011286;28;20030;-70
2023/02/12 02:49:19;;;;;;;59.90;34.33;;;;;;;;;;5010290;28;20034;-69
2023/02/12 02:51:47;;;;;;;64.35;36.22;;;;;;;;;;5009795;28;20030;-70
2023/02/12 02:54:13;;;;;;;60.67;34.38;;;;;;;;;;5011108;28;20088;-69
2023/02/12 02:56:40;;;;;;;66.07;35.50;;;;;;;;;;5010848;28;20029;-71
2023/02/12 02:59:14;;;;;;;63.08;36.17;;;;;;;;;;5010421;28;20514;-70
2023/02/12 03:01:43;;;;;;;65.00;35.60;;;;;;;;;;5011337;28;20073;-70
2023/02/12 03:04:13;;;;;;;58.75;33.70;;;;;;;;;;5011638;28;20040;-71
2023/02/12 03:06:53;;;;;;;64.25;35.90;;;;;;;;;;5027318;28;20077;-71
2023/02/12 03:09:26;;;;;;;61.20;34.50;;;;;;;;;;5025777;28;20033;-69
2023/02/12 03:11:55;;;;;;;58.03;33.85;;;;;;;;;;5026612;28;20349;-69
2023/02/12 03:14:21;;;;;;;59.85;34.47;;;;;;;;;;5015091;28;20030;-67
2023/02/12 03:16:54;;;;;;;58.83;31.55;;;;;;;;;;5014940;28;20033;-70
2023/02/12 03:19:22;;;;;;;55.53;30.88;;;;;;;;;;5014105;28;20037;-70
2023/02/12 03:21:55;;;;;;;53.45;32.90;;;;;;;;;;5014563;28;20026;-70
2023/02/12 03:24:21;;;;;;;53.50;32.10;;;;;;;;;;5014625;28;20451;-70
2023/02/12 03:26:50;;;;;;;55.45;32.70;;;;;;;;;;5014690;28;20102;-70
2023/02/12 03:29:16;;;;;;;54.20;32.50;;;;;;;;;;5014215;28;20028;-70
2023/02/12 03:31:42;;;;;;;60.15;34.40;;;;;;;;;;5014645;28;20384;-71
2023/02/12 03:34:08;;;;;;;54.38;32.30;;;;;;;;;;5014266;28;20080;-70
2023/02/12 03:36:57;;;;;;;57.70;34.22;;;;;;;;;;5014272;28;20083;-70
2023/02/12 03:39:38;;;;;;;58.90;32.72;;;;;;;;;;5008197;28;20068;-70
2023/02/12 03:42:13;;;;;;;60.40;35.30;;;;;;;;;;5013083;28;20075;-71
2023/02/12 03:44:55;;;;;;;63.10;35.67;;;;;;;;;;5014146;28;20167;-71
2023/02/12 03:47:21;;;;;;;;;;;;;;;;;;5013624;28;20683;-70
2023/02/12 03:50:02;;;;;;;63.42;35.78;;;;;;;;;;5014511;28;19913;-70
2023/02/12 03:52:28;;;;;;;62.47;34.75;;;;;;;;;;5014136;28;20487;-70
2023/02/12 03:54:54;;;;;;;64.82;35.35;;;;;;;;;;5014157;28;20058;-70
2023/02/12 03:57:22;;;;;;;66.57;37.22;;;;;;;;;;5012942;28;20022;-70
2023/02/12 03:59:48;;;;;;;69.18;38.58;;;;;;;;;;5013853;28;20109;-70
2023/02/12 04:02:15;;;;;;;67.22;37.17;;;;;;;;;;5014294;28;20028;-71
2023/02/12 04:04:41;;;;;;;61.67;36.25;;;;;;;;;;5013935;28;20029;-71
2023/02/12 04:07:08;;;;;;;65.03;36.28;;;;;;;;;;5013212;28;20109;-70
2023/02/12 04:09:34;;;;;;;62.78;36.38;;;;;;;;;;5013556;28;20511;-71
2023/02/12 04:12:02;;;;;;;67.85;37.05;;;;;;;;;;5013871;28;20032;-71
2023/02/12 04:14:34;;;;;;;72.10;39.55;;;;;;;;;;5014221;28;20030;-69
2023/02/12 04:17:37;;;;;;;74.75;38.92;;;;;;;;;;5012864;28;20022;-70
2023/02/12 04:20:05;;;;;;;72.88;40.03;;;;;;;;;;4972398;28;20033;-70
2023/02/12 04:22:37;;;;;;;78.18;41.88;;;;;;;;;;5004380;28;20384;-71
2023/02/12 04:25:03;;;;;;;65.05;36.58;;;;;;;;;;5012599;28;20128;-71
2023/02/12 04:27:36;;;;;;;74.40;38.80;;;;;;;;;;5011486;28;20552;-71
2023/02/12 04:30:11;;;;;;;78.07;40.13;;;;;;;;;;5013306;28;20028;-70
2023/02/12 04:32:41;;;;;;;77.38;41.28;;;;;;;;;;5013136;28;20084;-71
2023/02/12 04:35:14;;;;;;;84.53;40.22;;;;;;;;;;5013505;28;20033;-71
2023/02/12 04:37:43;;;;;;;73.68;39.70;;;;;;;;;;5012783;28;20026;-71
2023/02/12 04:40:12;;;;;;;73.80;40.70;;;;;;;;;;5013557;28;20022;-72
2023/02/12 04:42:45;;;;;;;71.68;38.17;;;;;;;;;;5013152;28;20407;-71
2023/02/12 04:45:12;;;;;;;67.85;37.33;;;;;;;;;;5012018;28;20022;-70
2023/02/12 04:47:38;;;;;;;72.80;40.05;;;;;;;;;;5012249;28;20065;-71
2023/02/12 04:50:04;;;;;;;64.00;36.47;;;;;;;;;;5012992;28;20030;-71
2023/02/12 04:52:30;;;;;;;69.82;38.08;;;;;;;;;;5013182;28;20031;-70
2023/02/12 04:54:56;;;;;;;68.88;37.78;;;;;;;;;;5013140;28;20392;-71
2023/02/12 04:57:22;;;;;;;69.93;37.15;;;;;;;;;;5012034;28;20554;-70
2023/02/12 04:59:48;;;;;;;71.68;39.63;;;;;;;;;;5012779;28;20026;-70
2023/02/12 05:02:14;;;;;;;63.13;37.28;;;;;;;;;;5012863;28;20026;-72
2023/02/12 05:04:40;;;;;;;74.05;39.60;;;;;;;;;;5012995;28;20022;-71
2023/02/12 05:07:06;;;;;;;72.22;36.60;;;;;;;;;;5012025;28;20073;-69
2023/02/12 05:09:32;;;;;;;74.40;38.88;;;;;;;;;;5012845;28;20018;-71
2023/02/12 05:11:58;;;;;;;72.30;39.70;;;;;;;;;;5011296;28;20502;-71
2023/02/12 05:14:24;;;;;;;79.65;38.17;;;;;;;;;;5012581;28;20033;-71
2023/02/12 05:16:50;;;;;;;80.40;39.83;;;;;;;;;;5012593;28;20034;-71
2023/02/12 05:19:16;;;;;;;78.63;39.00;;;;;;;;;;5011788;28;20116;-71
2023/02/12 05:21:42;;;;;;;83.30;39.08;;;;;;;;;;5011234;28;20480;-72
2023/02/12 05:24:08;;;;;;;75.38;38.97;;;;;;;;;;5011132;28;20037;-70
2023/02/12 05:26:35;;;;;;;86.25;42.65;;;;;;;;;;5011813;28;20404;-69
2023/02/12 05:29:02;;;;;;;80.05;39.97;;;;;;;;;;5011145;28;20041;-71
2023/02/12 05:31:28;;;;;;;83.22;39.45;;;;;;;;;;5012095;28;20018;-73
2023/02/12 05:33:54;;;;;;;88.63;41.50;;;;;;;;;;5012316;28;20033;-71
2023/02/12 05:36:21;;;;;;;85.78;42.13;;;;;;;;;;5012084;28;20462;-72
2023/02/12 05:38:47;;;;;;;79.93;38.70;;;;;;;;;;5011397;28;20392;-72
2023/02/12 05:41:18;;;;;;;82.88;40.80;;;;;;;;;;5011998;28;20025;-71
2023/02/12 05:43:44;;;;;;;78.50;40.05;;;;;;;;;;5010944;28;20120;-71
2023/02/12 05:46:11;;;;;;;68.53;37.50;;;;;;;;;;5012184;28;20030;-73
2023/02/12 05:48:37;;;;;;;66.60;37.25;;;;;;;;;;5010891;28;20045;-71
2023/02/12 05:51:04;;;;;;;71.82;38.22;;;;;;;;;;5012461;28;20486;-72
2023/02/12 05:53:30;;;;;;;79.38;39.38;;;;;;;;;;5011911;28;20033;-72
2023/02/12 05:56:05;;;;;;;75.20;36.83;;;;;;;;;;5011844;28;20033;-73
2023/02/12 05:58:31;;;;;;;77.32;38.38;;;;;;;;;;5011210;28;20025;-72
2023/02/12 06:00:57;;;;;;;72.63;39.53;;;;;;;;;;5011807;28;20431;-71
2023/02/12 06:03:23;;;;;;;67.43;37.15;;;;;;;;;;5011717;28;20025;-71
2023/02/12 06:05:50;;;;;;;71.10;36.13;;;;;;;;;;5010519;28;20518;-71
2023/02/12 06:08:16;;;;;;;68.07;36.28;;;;;;;;;;5010627;28;20028;-70
2023/02/12 06:10:42;;;;;;;64.75;35.67;;;;;;;;;;5011621;28;20349;-71
2023/02/12 06:13:08;;;;;;;58.83;33.92;;;;;;;;;;5011619;28;20033;-72
2023/02/12 06:15:37;;;;;;;69.45;37.25;;;;;;;;;;5011467;28;20040;-72
2023/02/12 06:18:03;;;;;;;63.67;34.90;;;;;;;;;;5010847;28;20030;-72
2023/02/12 06:20:29;;;;;;;61.28;33.25;;;;;;;;;;5011394;28;20132;-71
2023/02/12 06:22:55;;;;;;;58.42;33.35;;;;;;;;;;5011182;28;20112;-72
2023/02/12 06:25:21;;;;;;;59.42;33.65;;;;;;;;;;5011257;28;20083;-73
2023/02/12 06:27:47;;;;;;;50.75;32.15;;;;;;;;;;5010489;28;20424;-73
2023/02/12 06:30:13;;;;;;;57.45;33.40;;;;;;;;;;5011395;28;20049;-71
2023/02/12 06:32:39;;;;;;;61.00;33.03;;;;;;;;;;5011177;28;20492;-72
2023/02/12 06:35:06;;;;;;;64.55;35.40;;;;;;;;;;5010976;28;20040;-73
2023/02/12 06:37:35;;;;;;;61.35;34.90;;;;;;;;;;5010266;28;20105;-72
2023/02/12 06:40:01;;;;;;;64.20;33.95;;;;;;;;;;5011022;28;20257;-72
2023/02/12 06:42:27;;;;;;;65.00;33.58;;;;;;;;;;5009791;28;20045;-70
2023/02/12 06:44:53;;;;;;;63.75;35.38;;;;;;;;;;5009801;28;20485;-72
2023/02/12 06:47:19;;;;;;;68.63;35.67;;;;;;;;;;5010129;28;20040;-71
2023/02/12 06:49:45;;;;;;;70.88;37.00;;;;;;;;;;5063988;22;20045;-74
2023/02/12 06:52:12;;;;;;;71.75;35.85;;;;;;;;;;5050736;28;20028;-73
2023/02/12 06:54:39;;;;;;;71.65;35.92;;;;;;;;;;5051653;28;20021;-74
2023/02/12 06:57:05;;;;;;;72.90;35.35;;;;;;;;;;5050495;28;20029;-73
2023/02/12 06:59:31;;;;;;;64.35;33.95;;;;;;;;;;5064838;28;20036;-74
2023/02/12 07:01:57;;;;;;;63.55;35.50;;;;;;;;;;5072474;28;20032;-74
2023/02/12 07:04:23;;;;;;;65.88;33.60;;;;;;;;;;5067738;28;20119;-74
2023/02/12 07:06:49;;;;;;;57.88;32.05;;;;;;;;;;5069727;28;20025;-74
2023/02/12 07:09:15;;;;;;;62.42;34.65;;;;;;;;;;5069712;28;20550;-74
2023/02/12 07:11:41;;;;;;;61.05;33.50;;;;;;;;;;5070330;28;20062;-74
2023/02/12 07:14:07;;;;;;;60.35;34.55;;;;;;;;;;5070302;28;20368;-76
2023/02/12 07:16:33;;;;;;;57.13;32.88;;;;;;;;;;5070467;28;20028;-75
2023/02/12 07:18:59;;;;;;;58.42;33.05;;;;;;;;;;5069852;28;20025;-74
2023/02/12 07:21:25;;;;;;;53.95;29.85;;;;;;;;;;5070343;28;20122;-74
2023/02/12 07:23:52;;;;;;;60.50;32.83;;;;;;;;;;5070272;28;20421;-74
2023/02/12 07:26:18;;;;;;;56.38;30.98;;;;;;;;;;5070157;28;20036;-74
2023/02/12 07:28:44;;;;;;;59.13;32.42;;;;;;;;;;5069519;28;20103;-74
2023/02/12 07:31:10;;;;;;;50.10;29.45;;;;;;;;;;5070327;28;20070;-74
2023/02/12 07:33:37;;;;;;;54.33;30.08;;;;;;;;;;5068903;28;20024;-74
2023/02/12 07:36:04;;;;;;;60.35;31.95;;;;;;;;;;5069828;28;20573;-74
2023/02/12 07:38:30;;;;;;;51.20;30.75;;;;;;;;;;5068324;28;20024;-75
2023/02/12 07:41:05;;;;;;;56.10;30.50;;;;;;;;;;5070271;28;20028;-74
2023/02/12 07:43:31;;;;;;;53.83;30.80;;;;;;;;;;5068798;28;20056;-74
2023/02/12 07:46:04;;;;;;;49.15;28.55;;;;;;;;;;5068959;28;20063;-78
2023/02/12 07:48:30;;;;;;;53.65;29.58;;;;;;;;;;5069074;28;20032;-74
2023/02/12 07:50:56;;;;;;;51.40;31.90;;;;;;;;;;5071656;28;20024;-74
2023/02/12 07:53:22;;;;;;;55.75;32.55;;;;;;;;;;5073581;28;20402;-73
2023/02/12 07:55:49;;;;;;;51.28;29.27;;;;;;;;;;5073944;28;20436;-74
2023/02/12 07:58:14;;;;;;;48.67;30.00;;;;;;;;;;5072651;28;20028;-75
2023/02/12 08:00:40;;;;;;;48.95;29.10;;;;;;;;;;5073917;28;20402;-75
2023/02/12 08:03:06;;;;;;;44.35;29.10;;;;;;;;;;5074051;28;20027;-74
2023/02/12 08:05:32;;;;;;;47.45;28.83;;;;;;;;;;5073781;28;20499;-75
2023/02/12 08:07:58;;;;;;;40.83;27.48;;;;;;;;;;5072830;28;20029;-75
2023/02/12 08:10:24;;;;;;;43.78;26.45;;;;;;;;;;5073382;28;20429;-75
2023/02/12 08:12:50;;;;;;;37.95;24.42;;;;;;;;;;5073510;28;20020;-74
2023/02/12 08:15:16;;;;;;;43.47;26.70;;;;;;;;;;5073347;28;20020;-74
2023/02/12 08:17:42;;;;;;;42.63;26.38;;;;;;;;;;5072490;28;20078;-75
2023/02/12 08:20:08;;;;;;;44.65;27.67;;;;;;;;;;5073302;28;20017;-75
2023/02/12 08:22:34;;;;;;;40.47;25.13;;;;;;;;;;5073469;28;20066;-75
2023/02/12 08:25:00;;;;;;;37.83;24.58;;;;;;;;;;5073219;28;20024;-75
2023/02/12 08:27:26;;;;;;;37.65;24.00;;;;;;;;;;5072075;28;20468;-74
2023/02/12 08:29:52;;;;;;;39.35;24.23;;;;;;;;;;5071195;28;20050;-75
2023/02/12 08:32:18;;;;;;;41.13;24.63;;;;;;;;;;5070854;28;20021;-74
2023/02/12 08:34:44;;;;;;;39.60;24.45;;;;;;;;;;5073037;28;20020;-74
2023/02/12 08:37:10;;;;;;;34.10;23.05;;;;;;;;;;5072277;28;20469;-74
2023/02/12 08:39:36;;;;;;;33.72;23.00;;;;;;;;;;5072597;28;20028;-74
2023/02/12 08:42:02;;;;;;;38.60;22.52;;;;;;;;;;5073103;28;20028;-72
2023/02/12 08:44:29;;;;;;;37.13;22.88;;;;;;;;;;5072880;28;20107;-74
2023/02/12 08:46:55;;;;;;;31.98;21.83;;;;;;;;;;5073073;28;20350;-74
2023/02/12 08:49:25;;;;;;;36.83;23.38;;;;;;;;;;5072675;28;20088;-75
2023/02/12 08:51:53;;;;;;;35.00;22.67;;;;;;;;;;5072513;28;20039;-76
2023/02/12 08:54:20;;;;;;;35.67;22.35;;;;;;;;;;5072693;28;20025;-75
2023/02/12 08:56:46;;;;;;;34.10;22.17;;;;;;;;;;5071817;28;20389;-75
2023/02/12 08:59:13;;;;;;;33.22;22.40;;;;;;;;;;5070607;28;20024;-76
2023/02/12 09:01:40;;;;;;;40.88;26.00;;;;;;;;;;5072804;28;20028;-76
2023/02/12 09:04:07;;;;;;;34.72;23.80;;;;;;;;;;5069715;28;20025;-75
2023/02/12 09:06:34;;;;;;;36.20;22.92;;;;;;;;;;5070679;28;20051;-76
2023/02/12 09:09:00;;;;;;;31.92;22.10;;;;;;;;;;5070030;28;20028;-76
2023/02/12 09:11:30;;;;;;;35.97;24.58;;;;;;;;;;5070489;28;20031;-75
2023/02/12 09:14:00;;;;;;;36.05;23.52;;;;;;;;;;5070421;28;20047;-76
2023/02/12 09:16:27;;;;;;;33.03;23.40;;;;;;;;;;5070554;28;20082;-76
2023/02/12 09:18:53;;;;;;;33.38;22.65;;;;;;;;;;5070987;28;20042;-76
2023/02/12 09:21:20;;;;;;;32.38;21.50;;;;;;;;;;5071645;28;20056;-76
2023/02/12 09:23:46;;;;;;;31.05;20.90;;;;;;;;;;5070495;28;20075;-76
2023/02/12 09:26:16;;;;;;;27.98;20.27;;;;;;;;;;5070329;28;20394;-75
2023/02/12 09:28:43;;;;;;;29.47;18.70;;;;;;;;;;5070091;28;20383;-75
2023/02/12 09:31:11;;;;;;;23.17;17.23;;;;;;;;;;5070664;28;20336;-75
2023/02/12 09:33:37;;;;;;;27.52;18.23;;;;;;;;;;5071126;28;20028;-74
2023/02/12 09:36:08;;;;;;;22.52;15.23;;;;;;;;;;5062704;28;20059;-73
2023/02/12 09:38:34;;;;;;;20.55;14.52;;;;;;;;;;5057006;28;20189;-74
2023/02/12 09:41:00;;;;;;;20.88;13.35;;;;;;;;;;5053972;28;20484;-75
2023/02/12 09:43:33;;;;;;;18.88;13.00;;;;;;;;;;5066367;28;20024;-75
2023/02/12 09:46:14;;;;;;;19.38;13.07;;;;;;;;;;5070972;28;20062;-74
2023/02/12 09:48:43;;;;;;;22.73;13.35;;;;;;;;;;5063499;28;20063;-74
2023/02/12 09:51:10;;;;;;;21.60;13.75;;;;;;;;;;5062065;28;20085;-73
2023/02/12 09:53:39;;;;;;;19.98;12.70;;;;;;;;;;5066468;28;20029;-76
2023/02/12 09:56:19;;;;;;;23.20;13.00;;;;;;;;;;5057596;28;20028;-76
2023/02/12 09:58:48;;;;;;;19.20;12.00;;;;;;;;;;5058876;28;20347;-76
2023/02/12 10:01:15;;;;;;;18.33;12.02;;;;;;;;;;5051392;28;20025;-76
2023/02/12 10:03:41;;;;;;;19.10;11.38;;;;;;;;;;5050977;28;20021;-75
2023/02/12 10:06:11;;;;;;;18.60;10.90;;;;;;;;;;5050630;28;20024;-75
2023/02/12 10:08:46;;;;;;;23.30;11.25;;;;;;;;;;5052551;28;20525;-75
2023/02/12 10:11:27;;;;;;;19.83;11.13;;;;;;;;;;5053929;28;20506;-75
2023/02/12 10:13:59;;;;;;;17.88;9.80;;;;;;;;;;5054910;28;20069;-75
2023/02/12 10:16:48;;;;;;;21.73;10.05;;;;;;;;;;5070148;28;20032;-76
2023/02/12 10:19:26;;;;;;;19.65;9.40;;;;;;;;;;5069961;28;20070;-74
2023/02/12 10:21:58;;;;;;;17.50;8.95;;;;;;;;;;5069549;28;20493;-74
2023/02/12 10:24:24;;;;;;;19.05;9.73;;;;;;;;;;5055036;28;20074;-74
2023/02/12 10:26:54;;;;;;;18.75;8.15;;;;;;;;;;5048999;28;20024;-74
2023/02/12 10:29:21;;;;;;;22.17;8.52;;;;;;;;;;5055907;28;20024;-74
2023/02/12 10:31:53;;;;;;;19.48;7.90;;;;;;;;;;5061460;28;20494;-74
2023/02/12 10:34:21;;;;;;;14.48;8.10;;;;;;;;;;5053036;28;20021;-74
2023/02/12 10:36:49;;;;;;;17.15;7.60;;;;;;;;;;5061536;28;20483;-75
2023/02/12 10:39:22;;;;;;;22.33;7.72;;;;;;;;;;5047902;28;20047;-74
2023/02/12 10:42:10;;;;;;;15.52;7.47;;;;;;;;;;5053951;28;20017;-75
2023/02/12 10:44:36;;;;;;;19.50;8.38;;;;;;;;;;5051089;28;20116;-74
2023/02/12 10:47:02;;;;;;;15.98;8.05;;;;;;;;;;5064505;28;20071;-74
2023/02/12 10:49:30;;;;;;;17.75;8.63;;;;;;;;;;5050909;28;20467;-74
2023/02/12 10:52:15;;;;;;;16.33;8.05;;;;;;;;;;5055787;28;20021;-75
2023/02/12 10:54:42;;;;;;;18.42;8.52;;;;;;;;;;5055271;28;20040;-74
2023/02/12 10:57:17;;;;;;;16.83;8.52;;;;;;;;;;5051920;28;20115;-73
2023/02/12 10:59:44;;;;;;;19.23;9.57;;;;;;;;;;5063552;28;20029;-75
2023/02/12 11:02:21;;;;;;;16.30;9.52;;;;;;;;;;5066101;28;20557;-75
2023/02/12 11:04:47;;;;;;;19.60;9.40;;;;;;;;;;5055744;28;20079;-75
2023/02/12 11:07:13;;;;;;;15.63;8.80;;;;;;;;;;5059113;28;20032;-74
2023/02/12 11:09:44;;;;;;;14.13;7.78;;;;;;;;;;5048421;28;20017;-74
2023/02/12 11:12:25;;;;;;;14.93;8.48;;;;;;;;;;5048660;28;20066;-74
2023/02/12 11:14:53;;;;;;;22.58;11.85;;;;;;;;;;5061118;28;20078;-74
2023/02/12 11:17:51;;;;;;;24.75;9.27;;;;;;;;;;5057632;28;20032;-74
2023/02/12 11:20:17;;;;;;;15.85;6.88;;;;;;;;;;5016517;28;20071;-75
2023/02/12 11:22:53;;;;;;;18.27;6.90;;;;;;;;;;5053554;28;20105;-75
2023/02/12 11:25:19;;;;;;;19.25;6.47;;;;;;;;;;5050567;28;20033;-74
2023/02/12 11:27:45;;;;;;;16.08;7.13;;;;;;;;;;5053437;28;20013;-75
2023/02/12 11:30:19;;;;;;;16.83;6.72;;;;;;;;;;5054052;28;20021;-74
2023/02/12 11:32:45;;;;;;;14.23;6.30;;;;;;;;;;5059728;28;20424;-75
2023/02/12 11:35:22;;;;;;;23.58;6.80;;;;;;;;;;5063856;28;20026;-75
2023/02/12 11:37:48;;;;;;;15.93;6.63;;;;;;;;;;5062761;28;20009;-74
2023/02/12 11:40:20;;;;;;;14.38;6.03;;;;;;;;;;5063403;28;20104;-74
2023/02/12 11:42:49;;;;;;;21.30;7.10;;;;;;;;;;5050623;28;20025;-74
2023/02/12 11:45:18;;;;;;;15.80;6.85;;;;;;;;;;5057536;28;20023;-74
2023/02/12 11:47:45;;;;;;;22.17;7.18;;;;;;;;;;5052753;28;20059;-74
2023/02/12 11:50:28;;;;;;;14.77;6.82;;;;;;;;;;5053267;28;20025;-74
2023/02/12 11:52:58;;;;;;;12.77;5.85;;;;;;;;;;5053623;28;20024;-74
2023/02/12 11:55:26;;;;;;;18.60;6.13;;;;;;;;;;5055819;28;20021;-74
2023/02/12 11:57:54;;;;;;;15.60;5.97;;;;;;;;;;5072836;28;20290;-74
2023/02/12 12:00:28;;;;;;;16.35;6.10;;;;;;;;;;5072159;28;20300;-74
2023/02/12 12:02:54;;;;;;;21.02;6.65;;;;;;;;;;5073767;28;20101;-74
2023/02/12 12:05:21;;;;;;;15.05;6.38;;;;;;;;;;5073296;28;20020;-75
2023/02/12 12:07:53;;;;;;;18.23;5.50;;;;;;;;;;5071309;28;20131;-75
2023/02/12 12:10:19;;;;;;;14.32;5.88;;;;;;;;;;5072179;28;20034;-74
2023/02/12 12:12:44;;;;;;;13.82;5.53;;;;;;;;;;5053320;28;20519;-74
2023/02/12 12:21:07;;;;;;;19.63;6.38;;;;;;;;;;5051569;28;20044;-74
2023/02/12 12:23:39;;;;;;;18.88;6.03;;;;;;;;;;5057717;28;20471;-74
2023/02/12 12:26:20;;;;;;;18.45;5.70;;;;;;;;;;5072792;28;20019;-74
2023/02/12 12:29:05;;;;;;;17.52;6.10;;;;;;;;;;5070905;28;20020;-75
2023/02/12 12:31:38;;;;;;;17.27;5.68;;;;;;;;;;5066769;28;20450;-76
2023/02/12 12:34:12;;;;;;;15.57;5.72;;;;;;;;;;5052882;28;20025;-72
2023/02/12 12:36:41;;;;;;;16.20;5.97;;;;;;;;;;5052526;28;20046;-74
2023/02/12 12:39:23;;;;;;;17.15;6.10;;;;;;;;;;5052039;28;20444;-74
2023/02/12 12:41:52;;;;;;;15.50;6.10;;;;;;;;;;5052550;28;20109;-76
2023/02/12 12:44:30;;;;;;;20.27;6.22;;;;;;;;;;5052571;28;20033;-73
2023/02/12 12:47:07;;;;;;;15.35;6.18;;;;;;;;;;5052307;28;20030;-75
2023/02/12 12:49:45;;;;;;;16.75;7.22;;;;;;;;;;5082328;22;20515;-71
2023/02/12 12:52:29;;;;;;;20.08;6.90;;;;;;;;;;5052183;28;20148;-72
2023/02/12 12:55:14;;;;;;;15.82;7.47;;;;;;;;;;5052513;28;20021;-72
2023/02/12 12:57:49;;;;;;;25.02;7.15;;;;;;;;;;5062027;28;20028;-71
2023/02/12 13:00:24;;;;;;;23.90;6.72;;;;;;;;;;5071914;28;20630;-70
2023/02/12 13:03:01;;;;;;;21.42;8.15;;;;;;;;;;5072138;28;20020;-72
2023/02/12 13:05:36;;;;;;;19.23;7.60;;;;;;;;;;5071667;28;20031;-70
2023/02/12 13:08:13;;;;;;;20.65;5.97;;;;;;;;;;5071612;28;20107;-73
2023/02/12 13:10:50;;;;;;;18.70;6.57;;;;;;;;;;5072156;28;20020;-71
2023/02/12 13:13:35;;;;;;;19.95;7.03;;;;;;;;;;5071990;28;20021;-71
2023/02/12 13:16:10;;;;;;;18.38;7.18;;;;;;;;;;5061352;28;20055;-71
2023/02/12 13:18:36;;;;;;;15.52;6.15;;;;;;;;;;5059485;28;20028;-73
2023/02/12 13:21:11;;;;;;;15.00;6.35;;;;;;;;;;5067747;28;20517;-70
2023/02/12 13:23:43;;;;;;;13.57;6.15;;;;;;;;;;5056259;28;20517;-71
2023/02/12 13:26:15;;;;;;;14.65;6.43;;;;;;;;;;5055483;28;20020;-72
2023/02/12 13:28:48;;;;;;;17.25;7.15;;;;;;;;;;5051258;28;20060;-72
2023/02/12 13:31:17;;;;;;;17.30;7.28;;;;;;;;;;5052729;28;20112;-72
2023/02/12 13:33:44;;;;;;;22.95;7.88;;;;;;;;;;5082568;28;20128;-72
2023/02/12 13:36:13;;;;;;;19.30;7.28;;;;;;;;;;5073875;28;20032;-71
2023/02/12 13:38:42;;;;;;;18.67;7.97;;;;;;;;;;5083224;28;20059;-72
2023/02/12 13:41:09;;;;;;;15.68;7.22;;;;;;;;;;5081669;28;20020;-71
2023/02/12 13:44:08;;;;;;;21.05;7.80;;;;;;;;;;5056889;28;20107;-68
2023/02/12 13:46:49;;;;;;;14.73;6.97;;;;;;;;;;5019199;28;20087;-70
2023/02/12 13:49:20;;;;;;;16.50;6.65;;;;;;;;;;5066948;28;20024;-70
2023/02/12 13:51:48;;;;;;;19.27;6.60;;;;;;;;;;5051449;28;20025;-69
2023/02/12 13:54:19;;;;;;;15.07;6.63;;;;;;;;;;5060704;28;20016;-70
2023/02/12 13:56:50;;;;;;;17.52;6.75;;;;;;;;;;5065383;28;20029;-70
2023/02/12 13:59:31;;;;;;;9.70;5.67;;;;;;;;;;5067722;28;20494;-70
2023/02/12 14:02:03;;;;;;;12.82;5.75;;;;;;;;;;5055958;28;20453;-70
2023/02/12 14:04:34;;;;;;;13.82;5.43;;;;;;;;;;5068985;28;20060;-70
2023/02/12 14:07:08;;;;;;;13.77;7.03;;;;;;;;;;5068729;28;20037;-70
2023/02/12 14:10:01;;;;;;;14.05;6.72;;;;;;;;;;5049041;28;20013;-70
2023/02/12 14:12:30;;;;;;;14.98;6.13;;;;;;;;;;5047089;28;20057;-71
2023/02/12 14:15:03;;;;;;;9.82;5.95;;;;;;;;;;5050441;28;20099;-71
2023/02/12 14:17:30;;;;;;;12.50;6.13;;;;;;;;;;5048748;28;20029;-71
2023/02/12 14:19:56;;;;;;;13.23;6.30;;;;;;;;;;5050683;28;20501;-71
2023/02/12 14:22:28;;;;;;;14.10;7.15;;;;;;;;;;5050281;28;20079;-71
2023/02/12 14:24:57;;;;;;;11.00;6.88;;;;;;;;;;5050998;28;20372;-71
2023/02/12 14:27:35;;;;;;;11.95;6.20;;;;;;;;;;5068202;28;20115;-70
2023/02/12 14:30:11;;;;;;;14.60;7.25;;;;;;;;;;5070822;28;20021;-70
2023/02/12 14:32:54;;;;;;;12.23;7.13;;;;;;;;;;5064636;28;20052;-70
2023/02/12 14:35:26;;;;;;;11.50;7.40;;;;;;;;;;5070658;28;20116;-70
2023/02/12 14:37:56;;;;;;;11.25;6.68;;;;;;;;;;5086254;28;20464;-70
2023/02/12 14:40:39;;;;;;;10.63;6.87;;;;;;;;;;5070410;28;20478;-71
2023/02/12 14:43:25;;;;;;;9.60;6.93;;;;;;;;;;5070769;28;20748;-70